Terminal Aerodrome Forecast
Issued by NWS

Home | Current Version | Previous Version | Text Only | Print | Product List | Glossary On
Versions: 1 2 3 4 5 6 7 8 9 10 11 12 13 14 15 16 17 18
401
FTUS46 KMTR 220217 AAA
TAFSJC
TAF AMD
KSJC 220217Z 2202/2224 26009KT P6SM FEW015 FEW050
     FM220900 16005KT P6SM FEW015 SCT035
      TEMPO 2212/2216 BKN035
     FM221700 30003KT P6SM SCT035
     FM222100 31010KT P6SM FEW040=

USA.gov is the U.S. government's official web portal to all federal, state and local government web resources and services.